CheckWX is a tool to help pilots better visualize weather data.  It is not intended as a substitute for an official pre-flight weather briefing.

05:16:18 UTC

KTYS TAF
Mc Ghee Tyson Airport
Knoxville, Tennessee, USA
KTYS 240323Z 2403/2424 30012KT 2SM -RA BR SCT003 BKN017 OVC035 WS020/20040KT FM240500 19012G20KT 2SM SHRA SCT015 OVC035 FM241000 21014G26KT 6SM BR VCSH BKN040 FM241100 22014G24KT P6SM SCT050 FM241600 25018G31KT P6SM SCT070

Feb-24@
03:00 UTC

Feb-24 @ 03:00 UTC

Feb-24@
05:00 UTC

Feb-24 @ 05:00 UTC

KTYS 240323Z 2403/2424 30012KT 2SM -RA BR SCT003 BKN017 OVC035 WS020/20040KT

Expired

Wind
  • 300° at 12 KTS
Conditions
Light Rain, Mist
Cloud Levels
  • Scattered at 300' AGL
  • Broken at 1,700' AGL
  • Overcast at 3,500' AGL

Feb-24@
05:00 UTC

Feb-24 @ 05:00 UTC

Feb-24@
10:00 UTC

Feb-24 @ 10:00 UTC

FM240500 19012G20KT 2SM SHRA SCT015 OVC035

From

From Standard forecast or significant change

Wind
  • 190° at 12 KTS
  • {Gusting to 20 KTS
Conditions
Rain
Cloud Levels
  • Scattered at 1,500' AGL
  • Overcast at 3,500' AGL

Feb-24@
10:00 UTC

Feb-24 @ 10:00 UTC

Feb-24@
11:00 UTC

Feb-24 @ 11:00 UTC

FM241000 21014G26KT 6SM BR VCSH BKN040

From

From Standard forecast or significant change

Wind
  • 210° at 14 KTS
  • {Gusting to 26 KTS
Conditions
Mist
Cloud Levels
  • Broken at 4,000' AGL

Feb-24@
11:00 UTC

Feb-24 @ 11:00 UTC

Feb-24@
16:00 UTC

Feb-24 @ 16:00 UTC

FM241100 22014G24KT P6SM SCT050

From

From Standard forecast or significant change

Wind
  • 220° at 14 KTS
  • {Gusting to 24 KTS
Cloud Levels
  • Scattered at 5,000' AGL

Feb-24@
16:00 UTC

Feb-24 @ 16:00 UTC

Feb-25@
00:00 UTC

Feb-25 @ 00:00 UTC

FM241600 25018G31KT P6SM SCT070

From

From Standard forecast or significant change

Wind
  • 250° at 18 KTS
  • {Gusting to 31 KTS
Cloud Levels
  • Scattered at 7,000' AGL